sensor_id;sensor_type;location;lat;lon;timestamp;temperature;humidity
18934;DHT22;9599;53.706;10.384;2023-06-19T00:00:34;18.70;99.90
18934;DHT22;9599;53.706;10.384;2023-06-19T00:03:03;18.70;99.90
18934;DHT22;9599;53.706;10.384;2023-06-19T00:05:31;18.70;99.90
18934;DHT22;9599;53.706;10.384;2023-06-19T00:07:59;18.70;99.90
18934;DHT22;9599;53.706;10.384;2023-06-19T00:10:28;18.80;99.90
18934;DHT22;9599;53.706;10.384;2023-06-19T00:12:56;18.70;99.90
18934;DHT22;9599;53.706;10.384;2023-06-19T00:15:24;18.60;99.90
18934;DHT22;9599;53.706;10.384;2023-06-19T00:17:54;18.70;99.90
18934;DHT22;9599;53.706;10.384;2023-06-19T00:20:22;18.70;99.90
18934;DHT22;9599;53.706;10.384;2023-06-19T00:22:52;18.60;99.90
18934;DHT22;9599;53.706;10.384;2023-06-19T00:25:20;18.60;99.90
18934;DHT22;9599;53.706;10.384;2023-06-19T00:27:49;18.60;99.90
18934;DHT22;9599;53.706;10.384;2023-06-19T00:30:18;18.60;99.90
18934;DHT22;9599;53.706;10.384;2023-06-19T00:32:47;18.60;99.90
18934;DHT22;9599;53.706;10.384;2023-06-19T00:35:17;18.50;99.90
18934;DHT22;9599;53.706;10.384;2023-06-19T00:37:47;18.50;99.90
18934;DHT22;9599;53.706;10.384;2023-06-19T00:40:24;18.60;99.90
18934;DHT22;9599;53.706;10.384;2023-06-19T00:42:55;18.50;99.90
18934;DHT22;9599;53.706;10.384;2023-06-19T00:45:24;18.50;99.90
18934;DHT22;9599;53.706;10.384;2023-06-19T00:47:52;18.50;99.90
18934;DHT22;9599;53.706;10.384;2023-06-19T00:50:21;18.50;99.90
18934;DHT22;9599;53.706;10.384;2023-06-19T00:52:50;18.60;99.90
18934;DHT22;9599;53.706;10.384;2023-06-19T00:55:18;18.60;99.90
18934;DHT22;9599;53.706;10.384;2023-06-19T00:57:46;18.60;99.90
18934;DHT22;9599;53.706;10.384;2023-06-19T01:00:17;18.60;99.90
18934;DHT22;9599;53.706;10.384;2023-06-19T01:02:47;18.60;99.90
18934;DHT22;9599;53.706;10.384;2023-06-19T01:05:15;18.50;99.90
18934;DHT22;9599;53.706;10.384;2023-06-19T01:07:47;18.50;99.90
18934;DHT22;9599;53.706;10.384;2023-06-19T01:10:21;18.60;99.90
18934;DHT22;9599;53.706;10.384;2023-06-19T01:12:56;18.60;99.90
18934;DHT22;9599;53.706;10.384;2023-06-19T01:15:26;18.60;99.90
18934;DHT22;9599;53.706;10.384;2023-06-19T01:17:56;18.60;99.90
18934;DHT22;9599;53.706;10.384;2023-06-19T01:20:24;18.70;99.90
18934;DHT22;9599;53.706;10.384;2023-06-19T01:22:54;18.80;99.90
18934;DHT22;9599;53.706;10.384;2023-06-19T01:25:24;18.80;99.90
18934;DHT22;9599;53.706;10.384;2023-06-19T01:27:52;18.80;99.90
18934;DHT22;9599;53.706;10.384;2023-06-19T01:30:20;18.90;99.90
18934;DHT22;9599;53.706;10.384;2023-06-19T01:32:55;18.80;99.90
18934;DHT22;9599;53.706;10.384;2023-06-19T01:35:28;18.60;99.90
18934;DHT22;9599;53.706;10.384;2023-06-19T01:37:59;18.50;99.90
18934;DHT22;9599;53.706;10.384;2023-06-19T01:40:32;18.40;99.90
18934;DHT22;9599;53.706;10.384;2023-06-19T01:43:03;18.40;99.90
18934;DHT22;9599;53.706;10.384;2023-06-19T01:45:32;18.30;99.90
18934;DHT22;9599;53.706;10.384;2023-06-19T01:48:00;18.30;99.90
18934;DHT22;9599;53.706;10.384;2023-06-19T01:50:28;18.30;99.90
18934;DHT22;9599;53.706;10.384;2023-06-19T01:52:56;18.30;99.90
18934;DHT22;9599;53.706;10.384;2023-06-19T01:55:26;18.30;99.90
18934;DHT22;9599;53.706;10.384;2023-06-19T01:57:56;18.40;99.90
18934;DHT22;9599;53.706;10.384;2023-06-19T02:00:24;18.40;99.90
18934;DHT22;9599;53.706;10.384;2023-06-19T02:02:52;18.50;99.90
18934;DHT22;9599;53.706;10.384;2023-06-19T02:05:21;18.50;99.90
18934;DHT22;9599;53.706;10.384;2023-06-19T02:07:49;18.40;99.90
18934;DHT22;9599;53.706;10.384;2023-06-19T02:10:17;18.50;99.90
18934;DHT22;9599;53.706;10.384;2023-06-19T02:12:47;18.50;99.90
18934;DHT22;9599;53.706;10.384;2023-06-19T02:15:15;18.50;99.90
18934;DHT22;9599;53.706;10.384;2023-06-19T02:17:44;18.40;99.90
18934;DHT22;9599;53.706;10.384;2023-06-19T02:20:12;18.40;99.90
18934;DHT22;9599;53.706;10.384;2023-06-19T02:22:40;18.40;99.90
18934;DHT22;9599;53.706;10.384;2023-06-19T02:25:08;18.40;99.90
18934;DHT22;9599;53.706;10.384;2023-06-19T02:27:36;18.40;99.90
18934;DHT22;9599;53.706;10.384;2023-06-19T02:30:07;18.50;99.90
18934;DHT22;9599;53.706;10.384;2023-06-19T02:32:35;18.60;99.90
18934;DHT22;9599;53.706;10.384;2023-06-19T02:35:05;18.60;99.90
18934;DHT22;9599;53.706;10.384;2023-06-19T02:37:35;18.60;99.90
18934;DHT22;9599;53.706;10.384;2023-06-19T02:40:04;18.70;99.90
18934;DHT22;9599;53.706;10.384;2023-06-19T02:42:33;18.70;99.90
18934;DHT22;9599;53.706;10.384;2023-06-19T02:45:01;18.70;99.90
18934;DHT22;9599;53.706;10.384;2023-06-19T02:47:32;18.70;99.90
18934;DHT22;9599;53.706;10.384;2023-06-19T02:50:01;18.70;99.90
18934;DHT22;9599;53.706;10.384;2023-06-19T02:52:31;18.70;99.90
18934;DHT22;9599;53.706;10.384;2023-06-19T02:54:59;18.70;99.90
18934;DHT22;9599;53.706;10.384;2023-06-19T02:57:28;18.70;99.90
18934;DHT22;9599;53.706;10.384;2023-06-19T02:59:57;18.70;99.90
18934;DHT22;9599;53.706;10.384;2023-06-19T03:02:26;18.60;99.90
18934;DHT22;9599;53.706;10.384;2023-06-19T03:04:55;18.70;99.90
18934;DHT22;9599;53.706;10.384;2023-06-19T03:07:23;18.80;99.90
18934;DHT22;9599;53.706;10.384;2023-06-19T03:09:55;18.80;99.90
18934;DHT22;9599;53.706;10.384;2023-06-19T03:12:23;18.90;99.90
18934;DHT22;9599;53.706;10.384;2023-06-19T03:14:52;18.90;99.90
18934;DHT22;9599;53.706;10.384;2023-06-19T03:17:21;18.80;99.90
18934;DHT22;9599;53.706;10.384;2023-06-19T03:19:49;18.90;99.90
18934;DHT22;9599;53.706;10.384;2023-06-19T03:22:19;18.90;99.90
18934;DHT22;9599;53.706;10.384;2023-06-19T03:24:47;18.90;99.90
18934;DHT22;9599;53.706;10.384;2023-06-19T03:27:19;18.90;99.90
18934;DHT22;9599;53.706;10.384;2023-06-19T03:29:47;18.90;99.90
18934;DHT22;9599;53.706;10.384;2023-06-19T03:32:21;18.90;99.90
18934;DHT22;9599;53.706;10.384;2023-06-19T03:34:50;18.90;99.90
18934;DHT22;9599;53.706;10.384;2023-06-19T03:37:20;18.90;99.90
18934;DHT22;9599;53.706;10.384;2023-06-19T03:39:48;18.90;99.90
18934;DHT22;9599;53.706;10.384;2023-06-19T03:42:16;18.90;99.90
18934;DHT22;9599;53.706;10.384;2023-06-19T03:44:45;18.90;99.90
18934;DHT22;9599;53.706;10.384;2023-06-19T03:47:13;18.80;99.90
18934;DHT22;9599;53.706;10.384;2023-06-19T03:49:41;18.80;99.90
18934;DHT22;9599;53.706;10.384;2023-06-19T03:52:09;18.80;99.90
18934;DHT22;9599;53.706;10.384;2023-06-19T03:54:39;18.80;99.90
18934;DHT22;9599;53.706;10.384;2023-06-19T03:57:07;18.80;99.90
18934;DHT22;9599;53.706;10.384;2023-06-19T03:59:36;18.80;99.90
18934;DHT22;9599;53.706;10.384;2023-06-19T04:02:04;18.80;99.90
18934;DHT22;9599;53.706;10.384;2023-06-19T04:04:33;18.90;99.90
18934;DHT22;9599;53.706;10.384;2023-06-19T04:07:01;18.90;99.90
18934;DHT22;9599;53.706;10.384;2023-06-19T04:09:31;18.90;99.90
18934;DHT22;9599;53.706;10.384;2023-06-19T04:12:02;18.90;99.90
18934;DHT22;9599;53.706;10.384;2023-06-19T04:14:31;19.00;99.90
18934;DHT22;9599;53.706;10.384;2023-06-19T04:16:59;19.00;99.90
18934;DHT22;9599;53.706;10.384;2023-06-19T04:19:28;19.00;99.90
18934;DHT22;9599;53.706;10.384;2023-06-19T04:21:57;19.00;99.90
18934;DHT22;9599;53.706;10.384;2023-06-19T04:24:26;18.90;99.90
18934;DHT22;9599;53.706;10.384;2023-06-19T04:26:55;19.00;99.90
18934;DHT22;9599;53.706;10.384;2023-06-19T04:29:24;19.00;99.90
18934;DHT22;9599;53.706;10.384;2023-06-19T04:31:53;18.90;99.90
18934;DHT22;9599;53.706;10.384;2023-06-19T04:34:21;19.00;99.90
18934;DHT22;9599;53.706;10.384;2023-06-19T04:36:49;19.00;99.90
18934;DHT22;9599;53.706;10.384;2023-06-19T04:39:17;19.00;99.90
18934;DHT22;9599;53.706;10.384;2023-06-19T04:41:47;19.00;99.90
18934;DHT22;9599;53.706;10.384;2023-06-19T04:44:15;19.00;99.90
18934;DHT22;9599;53.706;10.384;2023-06-19T04:46:44;19.00;99.90
18934;DHT22;9599;53.706;10.384;2023-06-19T04:49:13;19.00;99.90
18934;DHT22;9599;53.706;10.384;2023-06-19T04:51:41;19.00;99.90
18934;DHT22;9599;53.706;10.384;2023-06-19T04:54:09;19.00;99.90
18934;DHT22;9599;53.706;10.384;2023-06-19T04:56:37;19.10;99.90
18934;DHT22;9599;53.706;10.384;2023-06-19T04:59:05;19.20;99.90
18934;DHT22;9599;53.706;10.384;2023-06-19T05:01:33;19.20;99.90
18934;DHT22;9599;53.706;10.384;2023-06-19T05:04:03;19.20;99.90
18934;DHT22;9599;53.706;10.384;2023-06-19T05:06:31;19.30;99.90
18934;DHT22;9599;53.706;10.384;2023-06-19T05:09:00;19.30;99.90
18934;DHT22;9599;53.706;10.384;2023-06-19T05:11:28;19.40;99.90
18934;DHT22;9599;53.706;10.384;2023-06-19T05:13:56;19.40;99.90
18934;DHT22;9599;53.706;10.384;2023-06-19T05:16:24;19.40;99.90
18934;DHT22;9599;53.706;10.384;2023-06-19T05:18:52;19.40;99.90
18934;DHT22;9599;53.706;10.384;2023-06-19T05:21:21;19.40;99.90
18934;DHT22;9599;53.706;10.384;2023-06-19T05:23:49;19.40;99.90
18934;DHT22;9599;53.706;10.384;2023-06-19T05:26:20;19.50;99.90
18934;DHT22;9599;53.706;10.384;2023-06-19T05:28:48;19.50;99.90
18934;DHT22;9599;53.706;10.384;2023-06-19T05:31:17;19.60;99.90
18934;DHT22;9599;53.706;10.384;2023-06-19T05:33:45;19.60;99.90
18934;DHT22;9599;53.706;10.384;2023-06-19T05:36:14;19.60;99.90
18934;DHT22;9599;53.706;10.384;2023-06-19T05:38:43;19.60;99.90
18934;DHT22;9599;53.706;10.384;2023-06-19T05:41:13;19.60;99.90
18934;DHT22;9599;53.706;10.384;2023-06-19T05:43:42;19.60;99.90
18934;DHT22;9599;53.706;10.384;2023-06-19T05:46:11;19.60;99.90
18934;DHT22;9599;53.706;10.384;2023-06-19T05:48:39;19.60;99.90
18934;DHT22;9599;53.706;10.384;2023-06-19T05:51:07;19.70;99.90
18934;DHT22;9599;53.706;10.384;2023-06-19T05:53:35;19.70;99.90
18934;DHT22;9599;53.706;10.384;2023-06-19T05:56:06;19.70;99.90
18934;DHT22;9599;53.706;10.384;2023-06-19T05:58:34;19.70;99.90
18934;DHT22;9599;53.706;10.384;2023-06-19T06:01:02;19.70;99.90
18934;DHT22;9599;53.706;10.384;2023-06-19T06:03:30;19.70;99.90
18934;DHT22;9599;53.706;10.384;2023-06-19T06:05:59;19.70;99.90
18934;DHT22;9599;53.706;10.384;2023-06-19T06:08:29;19.80;99.90
18934;DHT22;9599;53.706;10.384;2023-06-19T06:10:57;19.80;99.90
18934;DHT22;9599;53.706;10.384;2023-06-19T06:13:27;19.80;99.90
18934;DHT22;9599;53.706;10.384;2023-06-19T06:15:56;19.80;99.90
18934;DHT22;9599;53.706;10.384;2023-06-19T06:18:24;19.80;99.90
18934;DHT22;9599;53.706;10.384;2023-06-19T06:20:52;19.90;99.90
18934;DHT22;9599;53.706;10.384;2023-06-19T06:23:20;19.90;99.90
18934;DHT22;9599;53.706;10.384;2023-06-19T06:25:50;19.80;99.90
18934;DHT22;9599;53.706;10.384;2023-06-19T06:28:19;19.80;99.90
18934;DHT22;9599;53.706;10.384;2023-06-19T06:30:48;19.80;99.90
18934;DHT22;9599;53.706;10.384;2023-06-19T06:33:16;19.80;99.90
18934;DHT22;9599;53.706;10.384;2023-06-19T06:35:45;19.80;99.90
18934;DHT22;9599;53.706;10.384;2023-06-19T06:38:13;19.90;99.90
18934;DHT22;9599;53.706;10.384;2023-06-19T06:40:41;19.90;99.90
18934;DHT22;9599;53.706;10.384;2023-06-19T06:43:10;19.90;99.90
18934;DHT22;9599;53.706;10.384;2023-06-19T06:45:38;20.00;99.90
18934;DHT22;9599;53.706;10.384;2023-06-19T06:48:10;20.10;99.90
18934;DHT22;9599;53.706;10.384;2023-06-19T06:50:38;20.10;99.90
18934;DHT22;9599;53.706;10.384;2023-06-19T06:53:08;20.20;99.90
18934;DHT22;9599;53.706;10.384;2023-06-19T06:55:36;20.30;99.90
18934;DHT22;9599;53.706;10.384;2023-06-19T06:58:05;20.30;99.90
18934;DHT22;9599;53.706;10.384;2023-06-19T07:00:33;20.30;99.90
18934;DHT22;9599;53.706;10.384;2023-06-19T07:03:01;20.40;99.90
18934;DHT22;9599;53.706;10.384;2023-06-19T07:05:31;20.30;99.90
18934;DHT22;9599;53.706;10.384;2023-06-19T07:07:59;20.40;99.90
18934;DHT22;9599;53.706;10.384;2023-06-19T07:10:28;20.40;99.90
18934;DHT22;9599;53.706;10.384;2023-06-19T07:12:56;20.40;99.90
18934;DHT22;9599;53.706;10.384;2023-06-19T07:15:24;20.50;99.90
18934;DHT22;9599;53.706;10.384;2023-06-19T07:17:53;20.30;99.90
18934;DHT22;9599;53.706;10.384;2023-06-19T07:20:21;20.40;99.90
18934;DHT22;9599;53.706;10.384;2023-06-19T07:22:52;20.40;99.90
18934;DHT22;9599;53.706;10.384;2023-06-19T07:25:23;20.40;99.90
18934;DHT22;9599;53.706;10.384;2023-06-19T07:27:52;20.50;99.90
18934;DHT22;9599;53.706;10.384;2023-06-19T07:30:20;20.50;99.90
18934;DHT22;9599;53.706;10.384;2023-06-19T07:32:49;20.50;99.90
18934;DHT22;9599;53.706;10.384;2023-06-19T07:35:17;20.50;99.90
18934;DHT22;9599;53.706;10.384;2023-06-19T07:37:45;20.40;99.90
18934;DHT22;9599;53.706;10.384;2023-06-19T07:40:15;20.50;99.90
18934;DHT22;9599;53.706;10.384;2023-06-19T07:42:43;20.60;99.90
18934;DHT22;9599;53.706;10.384;2023-06-19T07:45:12;20.70;99.90
18934;DHT22;9599;53.706;10.384;2023-06-19T07:47:41;20.70;99.90
18934;DHT22;9599;53.706;10.384;2023-06-19T07:50:09;20.70;99.90
18934;DHT22;9599;53.706;10.384;2023-06-19T07:52:38;20.80;99.90
18934;DHT22;9599;53.706;10.384;2023-06-19T07:55:06;20.80;99.90
18934;DHT22;9599;53.706;10.384;2023-06-19T07:57:36;20.90;99.90
18934;DHT22;9599;53.706;10.384;2023-06-19T08:00:06;20.80;99.90
18934;DHT22;9599;53.706;10.384;2023-06-19T08:02:38;20.80;99.90
18934;DHT22;9599;53.706;10.384;2023-06-19T08:05:07;20.80;99.90
18934;DHT22;9599;53.706;10.384;2023-06-19T08:07:36;20.90;99.90
18934;DHT22;9599;53.706;10.384;2023-06-19T08:10:06;21.10;99.90
18934;DHT22;9599;53.706;10.384;2023-06-19T08:12:42;21.20;99.90
18934;DHT22;9599;53.706;10.384;2023-06-19T08:15:11;21.20;99.90
18934;DHT22;9599;53.706;10.384;2023-06-19T08:17:41;21.20;99.90
18934;DHT22;9599;53.706;10.384;2023-06-19T08:20:10;21.30;99.90
18934;DHT22;9599;53.706;10.384;2023-06-19T08:22:38;21.30;99.90
18934;DHT22;9599;53.706;10.384;2023-06-19T08:25:07;21.30;99.90
18934;DHT22;9599;53.706;10.384;2023-06-19T08:27:36;21.40;99.90
18934;DHT22;9599;53.706;10.384;2023-06-19T08:30:07;21.40;99.90
18934;DHT22;9599;53.706;10.384;2023-06-19T08:32:35;21.50;99.90
18934;DHT22;9599;53.706;10.384;2023-06-19T08:35:05;21.50;99.90
18934;DHT22;9599;53.706;10.384;2023-06-19T08:37:33;21.60;99.90
18934;DHT22;9599;53.706;10.384;2023-06-19T08:40:02;21.70;99.90
18934;DHT22;9599;53.706;10.384;2023-06-19T08:42:33;21.70;99.90
18934;DHT22;9599;53.706;10.384;2023-06-19T08:45:01;21.90;99.90
18934;DHT22;9599;53.706;10.384;2023-06-19T08:47:31;22.50;99.90
18934;DHT22;9599;53.706;10.384;2023-06-19T08:50:00;23.00;99.90
18934;DHT22;9599;53.706;10.384;2023-06-19T08:52:29;23.40;99.90
18934;DHT22;9599;53.706;10.384;2023-06-19T08:54:57;23.70;99.90
18934;DHT22;9599;53.706;10.384;2023-06-19T08:57:33;24.00;99.90
18934;DHT22;9599;53.706;10.384;2023-06-19T09:00:02;24.20;99.90
18934;DHT22;9599;53.706;10.384;2023-06-19T09:02:42;24.40;99.90
18934;DHT22;9599;53.706;10.384;2023-06-19T09:05:15;24.90;99.90
18934;DHT22;9599;53.706;10.384;2023-06-19T09:07:44;25.10;99.90
18934;DHT22;9599;53.706;10.384;2023-06-19T09:10:15;25.40;99.90
18934;DHT22;9599;53.706;10.384;2023-06-19T09:12:56;25.70;99.90
18934;DHT22;9599;53.706;10.384;2023-06-19T09:15:28;25.70;99.90
18934;DHT22;9599;53.706;10.384;2023-06-19T09:18:03;26.00;99.90
18934;DHT22;9599;53.706;10.384;2023-06-19T09:20:33;26.10;99.90
18934;DHT22;9599;53.706;10.384;2023-06-19T09:23:01;26.20;99.90
18934;DHT22;9599;53.706;10.384;2023-06-19T09:25:30;26.10;99.90
18934;DHT22;9599;53.706;10.384;2023-06-19T09:27:58;26.00;99.90
18934;DHT22;9599;53.706;10.384;2023-06-19T09:30:26;26.10;99.90
18934;DHT22;9599;53.706;10.384;2023-06-19T09:32:54;26.30;99.90
18934;DHT22;9599;53.706;10.384;2023-06-19T09:35:24;26.30;99.90
18934;DHT22;9599;53.706;10.384;2023-06-19T09:37:57;26.30;99.90
18934;DHT22;9599;53.706;10.384;2023-06-19T09:40:25;26.30;99.90
18934;DHT22;9599;53.706;10.384;2023-06-19T09:42:54;26.30;99.90
18934;DHT22;9599;53.706;10.384;2023-06-19T09:45:28;26.30;99.90
18934;DHT22;9599;53.706;10.384;2023-06-19T09:47:57;26.50;99.90
18934;DHT22;9599;53.706;10.384;2023-06-19T09:50:43;26.70;99.90
18934;DHT22;9599;53.706;10.384;2023-06-19T09:53:12;26.80;99.90
18934;DHT22;9599;53.706;10.384;2023-06-19T09:55:40;27.00;99.90
18934;DHT22;9599;53.706;10.384;2023-06-19T09:58:09;27.20;99.90
18934;DHT22;9599;53.706;10.384;2023-06-19T10:00:38;27.70;99.90
18934;DHT22;9599;53.706;10.384;2023-06-19T10:03:11;28.00;99.90
18934;DHT22;9599;53.706;10.384;2023-06-19T10:05:40;27.90;99.90
18934;DHT22;9599;53.706;10.384;2023-06-19T10:08:09;27.90;99.90
18934;DHT22;9599;53.706;10.384;2023-06-19T10:10:46;27.90;99.90
18934;DHT22;9599;53.706;10.384;2023-06-19T10:13:16;27.90;99.90
18934;DHT22;9599;53.706;10.384;2023-06-19T10:15:45;28.10;99.90
18934;DHT22;9599;53.706;10.384;2023-06-19T10:18:15;28.10;99.90
18934;DHT22;9599;53.706;10.384;2023-06-19T10:20:47;28.50;99.90
18934;DHT22;9599;53.706;10.384;2023-06-19T10:23:18;28.60;99.90
18934;DHT22;9599;53.706;10.384;2023-06-19T10:25:48;28.40;99.90
18934;DHT22;9599;53.706;10.384;2023-06-19T10:28:25;28.50;99.90
18934;DHT22;9599;53.706;10.384;2023-06-19T10:30:54;28.60;99.90
18934;DHT22;9599;53.706;10.384;2023-06-19T10:33:23;28.60;99.90
18934;DHT22;9599;53.706;10.384;2023-06-19T10:35:51;28.50;99.90
18934;DHT22;9599;53.706;10.384;2023-06-19T10:38:21;28.80;99.90
18934;DHT22;9599;53.706;10.384;2023-06-19T10:40:49;28.90;99.90
18934;DHT22;9599;53.706;10.384;2023-06-19T10:43:20;28.80;99.90
18934;DHT22;9599;53.706;10.384;2023-06-19T10:45:50;29.00;99.90
18934;DHT22;9599;53.706;10.384;2023-06-19T10:48:24;29.30;99.90
18934;DHT22;9599;53.706;10.384;2023-06-19T10:50:52;29.40;99.90
18934;DHT22;9599;53.706;10.384;2023-06-19T10:53:26;29.70;99.90
18934;DHT22;9599;53.706;10.384;2023-06-19T10:55:56;29.70;99.90
18934;DHT22;9599;53.706;10.384;2023-06-19T10:58:24;29.70;99.90
18934;DHT22;9599;53.706;10.384;2023-06-19T11:00:52;29.80;99.90
18934;DHT22;9599;53.706;10.384;2023-06-19T11:03:20;30.00;99.90
18934;DHT22;9599;53.706;10.384;2023-06-19T11:05:50;30.20;99.90
18934;DHT22;9599;53.706;10.384;2023-06-19T11:08:18;29.70;99.90
18934;DHT22;9599;53.706;10.384;2023-06-19T11:10:49;29.60;99.90
18934;DHT22;9599;53.706;10.384;2023-06-19T11:13:18;29.50;99.90
18934;DHT22;9599;53.706;10.384;2023-06-19T11:15:48;29.40;99.90
18934;DHT22;9599;53.706;10.384;2023-06-19T11:18:18;29.60;99.90
18934;DHT22;9599;53.706;10.384;2023-06-19T11:20:48;29.70;99.90
18934;DHT22;9599;53.706;10.384;2023-06-19T11:23:26;29.70;99.90
18934;DHT22;9599;53.706;10.384;2023-06-19T11:26:02;29.80;99.90
18934;DHT22;9599;53.706;10.384;2023-06-19T11:28:30;30.00;99.90
18934;DHT22;9599;53.706;10.384;2023-06-19T11:30:59;30.30;99.90
18934;DHT22;9599;53.706;10.384;2023-06-19T11:33:28;30.00;99.90
18934;DHT22;9599;53.706;10.384;2023-06-19T11:36:00;29.80;99.90
18934;DHT22;9599;53.706;10.384;2023-06-19T11:38:30;29.90;99.90
18934;DHT22;9599;53.706;10.384;2023-06-19T11:40:59;30.20;99.90
18934;DHT22;9599;53.706;10.384;2023-06-19T11:43:29;30.30;99.90
18934;DHT22;9599;53.706;10.384;2023-06-19T11:46:02;30.30;99.90
18934;DHT22;9599;53.706;10.384;2023-06-19T11:48:31;30.60;99.90
18934;DHT22;9599;53.706;10.384;2023-06-19T11:50:59;30.90;99.90
18934;DHT22;9599;53.706;10.384;2023-06-19T11:53:27;31.00;99.90
18934;DHT22;9599;53.706;10.384;2023-06-19T11:55:55;31.30;99.90
18934;DHT22;9599;53.706;10.384;2023-06-19T11:58:25;31.50;99.90
18934;DHT22;9599;53.706;10.384;2023-06-19T12:00:53;31.70;99.90
18934;DHT22;9599;53.706;10.384;2023-06-19T12:03:23;31.80;99.90
18934;DHT22;9599;53.706;10.384;2023-06-19T12:05:51;31.30;99.90
18934;DHT22;9599;53.706;10.384;2023-06-19T12:08:19;31.00;99.90
18934;DHT22;9599;53.706;10.384;2023-06-19T12:10:48;30.70;99.90
18934;DHT22;9599;53.706;10.384;2023-06-19T12:13:16;30.70;99.90
18934;DHT22;9599;53.706;10.384;2023-06-19T12:15:45;31.00;99.90
18934;DHT22;9599;53.706;10.384;2023-06-19T12:18:13;31.40;99.90
18934;DHT22;9599;53.706;10.384;2023-06-19T12:20:41;31.60;99.90
18934;DHT22;9599;53.706;10.384;2023-06-19T12:23:09;31.60;99.90
18934;DHT22;9599;53.706;10.384;2023-06-19T12:25:37;31.70;99.90
18934;DHT22;9599;53.706;10.384;2023-06-19T12:28:05;31.80;99.90
18934;DHT22;9599;53.706;10.384;2023-06-19T12:30:35;31.50;99.90
18934;DHT22;9599;53.706;10.384;2023-06-19T12:33:05;31.40;99.90
18934;DHT22;9599;53.706;10.384;2023-06-19T12:35:33;31.30;99.90
18934;DHT22;9599;53.706;10.384;2023-06-19T12:38:01;31.10;99.90
18934;DHT22;9599;53.706;10.384;2023-06-19T12:40:33;31.10;99.90
18934;DHT22;9599;53.706;10.384;2023-06-19T12:43:01;30.70;99.90
18934;DHT22;9599;53.706;10.384;2023-06-19T12:45:30;30.40;99.90
18934;DHT22;9599;53.706;10.384;2023-06-19T12:47:58;30.30;99.90
18934;DHT22;9599;53.706;10.384;2023-06-19T12:50:27;30.10;99.90
18934;DHT22;9599;53.706;10.384;2023-06-19T12:52:57;30.20;99.90
18934;DHT22;9599;53.706;10.384;2023-06-19T12:55:25;30.20;99.90
18934;DHT22;9599;53.706;10.384;2023-06-19T12:57:53;30.30;99.90
18934;DHT22;9599;53.706;10.384;2023-06-19T13:00:21;30.40;99.90
18934;DHT22;9599;53.706;10.384;2023-06-19T13:02:50;30.40;99.90
18934;DHT22;9599;53.706;10.384;2023-06-19T13:05:18;30.20;99.90
18934;DHT22;9599;53.706;10.384;2023-06-19T13:07:48;30.20;99.90
18934;DHT22;9599;53.706;10.384;2023-06-19T13:10:16;30.10;99.90
18934;DHT22;9599;53.706;10.384;2023-06-19T13:12:44;30.10;99.90
18934;DHT22;9599;53.706;10.384;2023-06-19T13:15:12;30.10;99.90
18934;DHT22;9599;53.706;10.384;2023-06-19T13:17:40;30.20;99.90
18934;DHT22;9599;53.706;10.384;2023-06-19T13:20:08;30.00;99.90
18934;DHT22;9599;53.706;10.384;2023-06-19T13:22:37;30.10;99.90
18934;DHT22;9599;53.706;10.384;2023-06-19T13:25:07;30.10;99.90
18934;DHT22;9599;53.706;10.384;2023-06-19T13:27:35;30.50;99.90
18934;DHT22;9599;53.706;10.384;2023-06-19T13:30:04;30.80;99.90
18934;DHT22;9599;53.706;10.384;2023-06-19T13:32:33;31.00;99.90
18934;DHT22;9599;53.706;10.384;2023-06-19T13:35:01;31.10;99.90
18934;DHT22;9599;53.706;10.384;2023-06-19T13:37:29;31.10;99.90
18934;DHT22;9599;53.706;10.384;2023-06-19T13:39:58;31.00;99.90
18934;DHT22;9599;53.706;10.384;2023-06-19T13:42:29;30.70;99.90
18934;DHT22;9599;53.706;10.384;2023-06-19T13:44:57;30.50;99.90
18934;DHT22;9599;53.706;10.384;2023-06-19T13:47:25;30.30;99.90
18934;DHT22;9599;53.706;10.384;2023-06-19T13:49:54;30.10;99.90
18934;DHT22;9599;53.706;10.384;2023-06-19T13:52:23;30.00;99.90
18934;DHT22;9599;53.706;10.384;2023-06-19T13:54:51;30.00;99.90
18934;DHT22;9599;53.706;10.384;2023-06-19T13:57:22;30.30;99.90
18934;DHT22;9599;53.706;10.384;2023-06-19T13:59:52;30.20;99.90
18934;DHT22;9599;53.706;10.384;2023-06-19T14:02:20;30.30;99.90
18934;DHT22;9599;53.706;10.384;2023-06-19T14:04:48;30.00;99.90
18934;DHT22;9599;53.706;10.384;2023-06-19T14:07:17;29.90;99.90
18934;DHT22;9599;53.706;10.384;2023-06-19T14:09:47;29.70;99.90
18934;DHT22;9599;53.706;10.384;2023-06-19T14:12:15;29.70;99.90
18934;DHT22;9599;53.706;10.384;2023-06-19T14:14:43;29.40;99.90
18934;DHT22;9599;53.706;10.384;2023-06-19T14:17:13;29.40;99.90
18934;DHT22;9599;53.706;10.384;2023-06-19T14:19:42;29.30;99.90
18934;DHT22;9599;53.706;10.384;2023-06-19T14:22:10;29.40;99.90
18934;DHT22;9599;53.706;10.384;2023-06-19T14:24:38;29.70;99.90
18934;DHT22;9599;53.706;10.384;2023-06-19T14:27:06;29.50;99.90
18934;DHT22;9599;53.706;10.384;2023-06-19T14:29:34;29.30;99.90
18934;DHT22;9599;53.706;10.384;2023-06-19T14:32:03;29.30;99.90
18934;DHT22;9599;53.706;10.384;2023-06-19T14:34:33;29.10;99.90
18934;DHT22;9599;53.706;10.384;2023-06-19T14:37:02;28.90;99.90
18934;DHT22;9599;53.706;10.384;2023-06-19T14:39:30;28.90;99.90
18934;DHT22;9599;53.706;10.384;2023-06-19T14:41:58;28.90;99.90
18934;DHT22;9599;53.706;10.384;2023-06-19T14:44:26;29.10;99.90
18934;DHT22;9599;53.706;10.384;2023-06-19T14:46:55;29.00;99.90
18934;DHT22;9599;53.706;10.384;2023-06-19T14:49:23;29.10;99.90
18934;DHT22;9599;53.706;10.384;2023-06-19T14:51:53;29.10;99.90
18934;DHT22;9599;53.706;10.384;2023-06-19T14:54:23;29.20;99.90
18934;DHT22;9599;53.706;10.384;2023-06-19T14:56:51;29.00;99.90
18934;DHT22;9599;53.706;10.384;2023-06-19T14:59:20;28.90;99.90
18934;DHT22;9599;53.706;10.384;2023-06-19T15:01:48;28.90;99.90
18934;DHT22;9599;53.706;10.384;2023-06-19T15:04:17;28.70;99.90
18934;DHT22;9599;53.706;10.384;2023-06-19T15:06:45;28.50;99.90
18934;DHT22;9599;53.706;10.384;2023-06-19T15:09:15;28.60;99.90
18934;DHT22;9599;53.706;10.384;2023-06-19T15:11:43;28.70;99.90
18934;DHT22;9599;53.706;10.384;2023-06-19T15:14:11;28.50;99.90
18934;DHT22;9599;53.706;10.384;2023-06-19T15:16:40;28.20;99.90
18934;DHT22;9599;53.706;10.384;2023-06-19T15:19:08;28.30;99.90
18934;DHT22;9599;53.706;10.384;2023-06-19T15:21:36;28.30;99.90
18934;DHT22;9599;53.706;10.384;2023-06-19T15:24:07;28.10;99.90
18934;DHT22;9599;53.706;10.384;2023-06-19T15:26:37;27.90;99.90
18934;DHT22;9599;53.706;10.384;2023-06-19T15:29:06;27.60;99.90
18934;DHT22;9599;53.706;10.384;2023-06-19T15:31:34;27.40;99.90
18934;DHT22;9599;53.706;10.384;2023-06-19T15:34:03;27.50;99.90
18934;DHT22;9599;53.706;10.384;2023-06-19T15:36:31;27.20;99.90
18934;DHT22;9599;53.706;10.384;2023-06-19T15:38:59;27.00;99.90
18934;DHT22;9599;53.706;10.384;2023-06-19T15:41:27;26.90;99.90